createdAt,value
2023-05-11T00:02:07.752Z,14.13
2023-05-11T00:04:54.886Z,14.82
2023-05-11T00:07:28.014Z,14.50
2023-05-11T00:10:14.990Z,14.07
2023-05-11T00:12:47.984Z,13.75
2023-05-11T00:15:34.918Z,14.75
2023-05-11T00:18:14.911Z,14.50
2023-05-11T00:21:02.882Z,15.02
2023-05-11T00:23:42.918Z,14.65
2023-05-11T00:26:36.893Z,14.27
2023-05-11T00:29:30.916Z,14.80
2023-05-11T00:32:17.918Z,14.38
2023-05-11T00:34:57.908Z,14.85
2023-05-11T00:37:45.918Z,15.48
2023-05-11T00:40:25.897Z,16.05
2023-05-11T00:43:12.908Z,15.40
2023-05-11T00:45:48.189Z,15.13
2023-05-11T00:48:34.916Z,15.48
2023-05-11T00:51:16.896Z,14.90
2023-05-11T00:54:04.890Z,13.82
2023-05-11T00:56:38.005Z,15.07
2023-05-11T00:59:24.912Z,14.70
2023-05-11T01:02:04.940Z,14.30
2023-05-11T01:04:52.899Z,15.25
2023-05-11T01:07:38.945Z,14.13
2023-05-11T01:10:41.994Z,15.30
2023-05-11T01:13:50.938Z,14.32
2023-05-11T01:16:41.975Z,14.75
2023-05-11T01:19:51.906Z,15.50
2023-05-11T01:23:00.960Z,14.52
2023-05-11T01:26:05.923Z,15.18
2023-05-11T01:28:49.900Z,14.07
2023-05-11T01:31:41.962Z,15.13
2023-05-11T01:34:28.510Z,14.50
2023-05-11T01:37:22.969Z,15.82
2023-05-11T01:40:10.025Z,14.45
2023-05-11T01:43:07.912Z,14.02
2023-05-11T01:46:01.015Z,15.07
2023-05-11T01:48:39.157Z,14.95
2023-05-11T01:51:26.926Z,15.90
2023-05-11T01:54:09.918Z,14.48
2023-05-11T01:56:57.914Z,15.70
2023-05-11T01:59:40.938Z,15.80
2023-05-11T02:02:29.136Z,15.98
2023-05-11T02:05:10.923Z,15.30
2023-05-11T02:08:00.926Z,14.50
2023-05-11T02:10:41.989Z,14.48
2023-05-11T02:13:36.949Z,16.00
2023-05-11T02:16:26.039Z,15.02
2023-05-11T02:19:01.167Z,14.90
2023-05-11T02:21:50.987Z,15.02
2023-05-11T02:24:26.118Z,14.95
2023-05-11T02:27:13.000Z,15.05
2023-05-11T02:29:46.649Z,14.80
2023-05-11T02:32:36.026Z,14.05
2023-05-11T02:35:23.931Z,15.25
2023-05-11T02:38:11.916Z,15.32
2023-05-11T02:41:02.080Z,14.35
2023-05-11T02:43:53.925Z,14.45
2023-05-11T02:46:33.136Z,14.48
2023-05-11T02:49:24.958Z,14.23
2023-05-11T02:52:01.448Z,14.05
2023-05-11T02:54:48.954Z,14.48
2023-05-11T02:57:22.958Z,14.60
2023-05-11T03:00:11.033Z,14.48
2023-05-11T03:02:51.028Z,14.10
2023-05-11T03:05:44.966Z,14.90
2023-05-11T03:08:31.993Z,14.90
2023-05-11T03:11:06.079Z,15.77
2023-05-11T03:13:52.960Z,14.00
2023-05-11T03:16:27.120Z,14.38
2023-05-11T03:19:15.046Z,14.10
2023-05-11T03:21:49.078Z,14.07
2023-05-11T03:24:36.994Z,14.13
2023-05-11T03:27:17.958Z,15.80
2023-05-11T03:30:06.981Z,15.27
2023-05-11T03:32:41.099Z,16.98
2023-05-11T03:35:31.977Z,18.27
2023-05-11T03:38:06.358Z,18.60
2023-05-11T03:40:53.990Z,17.52
2023-05-11T03:43:29.078Z,17.00
2023-05-11T03:46:18.997Z,17.67
2023-05-11T03:48:53.185Z,15.63
2023-05-11T03:51:42.010Z,15.15
2023-05-11T03:54:15.070Z,16.92
2023-05-11T03:57:02.012Z,14.45
2023-05-11T03:59:41.969Z,14.60
2023-05-11T04:02:36.095Z,14.88
2023-05-11T04:05:25.990Z,14.95
2023-05-11T04:07:59.072Z,14.70
2023-05-11T04:10:46.016Z,14.02
2023-05-11T04:13:25.974Z,14.85
2023-05-11T04:16:20.050Z,14.40
2023-05-11T04:19:10.007Z,12.68
2023-05-11T04:21:43.058Z,14.48
2023-05-11T04:24:29.997Z,15.00
2023-05-11T04:27:11.051Z,14.52
2023-05-11T04:30:05.045Z,13.57
2023-05-11T04:32:52.015Z,12.77
2023-05-11T04:35:25.185Z,14.18
2023-05-11T04:38:12.988Z,13.70
2023-05-11T04:40:54.019Z,13.75
2023-05-11T04:43:49.044Z,12.60
2023-05-11T04:46:36.044Z,12.50
2023-05-11T04:49:16.003Z,12.73
2023-05-11T04:52:06.003Z,12.80
2023-05-11T04:54:39.305Z,13.40
2023-05-11T04:57:26.003Z,12.85
2023-05-11T04:59:59.368Z,12.88
2023-05-11T05:02:46.056Z,13.18
2023-05-11T05:05:19.188Z,13.65
2023-05-11T05:08:06.032Z,11.93
2023-05-11T05:10:39.177Z,12.45
2023-05-11T05:13:26.014Z,13.07
2023-05-11T05:15:59.146Z,13.90
2023-05-11T05:18:46.039Z,14.50
2023-05-11T05:21:19.142Z,13.40
2023-05-11T05:24:06.013Z,13.50
2023-05-11T05:26:39.146Z,13.40
2023-05-11T05:29:26.019Z,15.25
2023-05-11T05:31:59.960Z,15.23
2023-05-11T05:34:47.059Z,15.25
2023-05-11T05:37:23.056Z,15.13
2023-05-11T05:40:11.067Z,14.27
2023-05-11T05:42:51.052Z,13.98
2023-05-11T05:45:38.019Z,15.43
2023-05-11T05:48:12.191Z,15.70
2023-05-11T05:50:59.053Z,16.10
2023-05-11T05:53:32.225Z,15.57
2023-05-11T05:56:19.051Z,15.38
2023-05-11T05:58:52.636Z,13.70
2023-05-11T06:01:40.075Z,13.80
2023-05-11T06:04:13.361Z,13.23
2023-05-11T06:07:00.112Z,12.98
2023-05-11T06:09:40.097Z,13.82
2023-05-11T06:12:27.052Z,13.63
2023-05-11T06:15:01.284Z,12.45
2023-05-11T06:17:48.124Z,13.05
2023-05-11T06:20:21.760Z,13.35
2023-05-11T06:23:08.097Z,12.77
2023-05-11T06:25:42.499Z,12.15
2023-05-11T06:28:31.064Z,13.77
2023-05-11T06:31:11.116Z,13.10
2023-05-11T06:33:58.075Z,12.43
2023-05-11T06:36:32.353Z,13.02
2023-05-11T06:39:19.056Z,17.92
2023-05-11T06:41:53.576Z,14.38
2023-05-11T06:44:42.124Z,13.10
2023-05-11T06:47:15.190Z,11.52
2023-05-11T06:50:02.071Z,12.10
2023-05-11T06:52:36.163Z,12.93
2023-05-11T06:55:23.055Z,12.77
2023-05-11T06:57:56.255Z,13.25
2023-05-11T07:00:43.103Z,15.18
2023-05-11T07:03:23.060Z,16.58
2023-05-11T07:06:17.124Z,14.80
2023-05-11T07:09:11.074Z,13.65
2023-05-11T07:11:59.065Z,13.85
2023-05-11T07:14:32.255Z,14.38
2023-05-11T07:17:19.062Z,13.38
2023-05-11T07:19:52.567Z,14.20
2023-05-11T07:22:39.061Z,12.75
2023-05-11T07:25:13.322Z,13.55
2023-05-11T07:28:00.150Z,12.73
2023-05-11T07:30:33.276Z,14.10
2023-05-11T07:33:20.139Z,15.02
2023-05-11T07:36:03.041Z,12.40
2023-05-11T07:38:50.126Z,13.63
2023-05-11T07:41:26.687Z,12.77
2023-05-11T07:44:13.160Z,13.73
2023-05-11T07:46:46.296Z,12.23
2023-05-11T07:49:43.576Z,12.77
2023-05-11T07:52:25.103Z,12.70
2023-05-11T07:55:13.099Z,11.70
2023-05-11T07:57:46.225Z,13.50
2023-05-11T08:00:33.085Z,13.07
2023-05-11T08:03:13.154Z,12.38
2023-05-11T08:06:07.193Z,12.25
2023-05-11T08:08:54.164Z,12.20
2023-05-11T08:11:27.570Z,12.75
2023-05-11T08:14:14.137Z,12.00
2023-05-11T08:16:47.429Z,11.95
2023-05-11T08:19:34.102Z,12.48
2023-05-11T08:22:08.217Z,11.95
2023-05-11T08:24:56.137Z,12.80
2023-05-11T08:27:29.241Z,14.15
2023-05-11T08:30:18.907Z,12.70
2023-05-11T08:32:59.688Z,13.05
2023-05-11T08:35:53.154Z,11.80
2023-05-11T08:38:42.142Z,11.52
2023-05-11T08:41:26.117Z,11.27
2023-05-11T08:44:21.118Z,13.10
2023-05-11T08:50:05.201Z,12.15
2023-05-11T08:52:38.293Z,12.13
2023-05-11T08:55:30.123Z,12.60
2023-05-11T08:58:05.254Z,13.32
2023-05-11T09:00:52.132Z,13.15
2023-05-11T09:03:27.297Z,12.88
2023-05-11T09:06:15.176Z,13.23
2023-05-11T09:08:50.260Z,12.75
2023-05-11T09:11:37.142Z,12.80
2023-05-11T09:14:17.141Z,10.77
2023-05-11T09:17:13.374Z,12.13
2023-05-11T09:20:07.203Z,12.75
2023-05-11T09:22:51.698Z,13.00
2023-05-11T09:25:46.163Z,12.60
2023-05-11T09:28:36.114Z,13.20
2023-05-11T09:31:17.279Z,12.38
2023-05-11T09:34:18.184Z,12.82
2023-05-11T09:37:05.206Z,13.50
2023-05-11T09:40:25.572Z,13.07
2023-05-11T09:43:07.199Z,13.13
2023-05-11T09:45:54.291Z,13.30
2023-05-11T09:48:42.170Z,14.35
2023-05-11T09:51:16.241Z,13.18
2023-05-11T09:54:05.207Z,12.23
2023-05-11T09:56:51.397Z,11.70
2023-05-11T09:59:45.159Z,11.85
2023-05-11T10:02:38.331Z,12.77
2023-05-11T10:05:25.163Z,12.85
2023-05-11T10:08:13.223Z,11.85
2023-05-11T10:11:01.193Z,11.57
2023-05-11T10:13:35.265Z,11.00
2023-05-11T10:16:23.260Z,11.68
2023-05-11T10:18:56.888Z,12.35
2023-05-11T10:21:44.343Z,12.63
2023-05-11T10:24:20.226Z,13.35
2023-05-11T10:27:08.290Z,11.80
2023-05-11T10:29:42.295Z,12.13
2023-05-11T10:32:29.220Z,14.00
2023-05-11T10:35:03.299Z,12.73
2023-05-11T10:37:50.197Z,11.90
2023-05-11T10:40:23.775Z,12.68
2023-05-11T10:43:35.187Z,12.25
2023-05-11T10:46:30.626Z,13.32
2023-05-11T10:49:54.198Z,12.88
2023-05-11T10:52:59.200Z,13.18
2023-05-11T10:56:13.268Z,11.80
2023-05-11T10:58:55.308Z,12.60
2023-05-11T11:01:46.213Z,13.68
2023-05-11T11:04:20.592Z,13.10
2023-05-11T11:07:15.264Z,12.73
2023-05-11T11:10:09.168Z,11.07
2023-05-11T11:13:10.223Z,11.60
2023-05-11T11:16:09.222Z,11.45
2023-05-11T11:18:56.290Z,11.95
2023-05-11T11:21:49.333Z,12.05
2023-05-11T11:24:45.267Z,11.88
2023-05-11T11:27:19.427Z,10.25
2023-05-11T11:30:27.524Z,12.73
2023-05-11T11:33:22.346Z,10.88
2023-05-11T11:36:09.252Z,10.93
2023-05-11T11:39:12.249Z,11.77
2023-05-11T11:42:16.263Z,11.07
2023-05-11T11:45:36.242Z,11.65
2023-05-11T11:48:29.268Z,12.05
2023-05-11T11:51:27.519Z,11.60
2023-05-11T11:54:21.249Z,11.77
2023-05-11T11:57:08.241Z,12.77
2023-05-11T11:59:52.342Z,12.55
2023-05-11T12:02:40.330Z,11.65
2023-05-11T12:05:23.385Z,11.52
2023-05-11T12:08:13.254Z,11.20
2023-05-11T12:10:48.184Z,11.20
2023-05-11T12:13:35.252Z,11.70
2023-05-11T12:16:18.907Z,10.60
2023-05-11T12:19:06.292Z,10.88
2023-05-11T12:21:39.353Z,12.25
2023-05-11T12:24:26.263Z,11.77
2023-05-11T12:27:02.367Z,11.65
2023-05-11T12:29:52.255Z,11.50
2023-05-11T12:32:38.396Z,12.38
2023-05-11T12:35:51.334Z,11.80
2023-05-11T12:38:32.273Z,11.40
2023-05-11T12:41:34.255Z,11.77
2023-05-11T12:44:23.272Z,10.68
2023-05-11T12:47:04.271Z,11.27
2023-05-11T12:49:58.255Z,11.60
2023-05-11T12:52:52.282Z,12.43
2023-05-11T12:55:39.271Z,11.07
2023-05-11T12:58:19.440Z,11.82
2023-05-11T13:01:06.362Z,12.25
2023-05-11T13:03:40.508Z,12.95
2023-05-11T13:06:27.283Z,12.80
2023-05-11T13:09:00.487Z,11.90
2023-05-11T13:11:48.301Z,11.30
2023-05-11T13:14:30.283Z,13.02
2023-05-11T13:17:24.473Z,12.82
2023-05-11T13:20:24.298Z,14.23
2023-05-11T13:23:26.302Z,11.50
2023-05-11T13:26:20.287Z,11.65
2023-05-11T13:29:11.219Z,11.65
2023-05-11T13:31:58.423Z,10.55
2023-05-11T13:34:45.298Z,10.00
2023-05-11T13:37:25.303Z,11.25
2023-05-11T13:40:20.317Z,12.50
2023-05-11T13:43:14.321Z,11.43
2023-05-11T13:46:01.315Z,10.32
2023-05-11T13:48:34.429Z,11.38
2023-05-11T13:51:21.305Z,12.85
2023-05-11T13:53:54.541Z,11.60
2023-05-11T13:56:41.303Z,11.07
2023-05-11T13:59:21.337Z,11.75
2023-05-11T14:02:15.338Z,12.23
2023-05-11T14:05:02.312Z,11.20
2023-05-11T14:07:46.264Z,12.45
2023-05-11T14:10:34.311Z,12.45
2023-05-11T14:13:07.426Z,11.52
2023-05-11T14:15:54.338Z,11.73
2023-05-11T14:18:34.391Z,12.00
2023-05-11T14:21:21.343Z,12.80
2023-05-11T14:24:09.866Z,10.90
2023-05-11T14:26:58.312Z,13.65
2023-05-11T14:29:32.532Z,13.27
2023-05-11T14:32:19.354Z,11.23
2023-05-11T14:34:59.359Z,11.50
2023-05-11T14:37:46.350Z,11.57
2023-05-11T14:40:19.380Z,11.57
2023-05-11T14:43:06.391Z,10.75
2023-05-11T14:45:40.781Z,10.68
2023-05-11T14:48:29.348Z,10.50
2023-05-11T14:51:03.594Z,11.02
2023-05-11T14:53:50.414Z,10.25
2023-05-11T14:56:30.395Z,11.02
2023-05-11T14:59:17.348Z,10.38
2023-05-11T15:01:57.388Z,11.30
2023-05-11T15:04:51.343Z,10.05
2023-05-11T15:07:45.379Z,10.93
2023-05-11T15:10:32.330Z,10.80
2023-05-11T15:13:12.353Z,10.45
2023-05-11T15:15:59.369Z,10.13
2023-05-11T15:18:32.445Z,10.20
2023-05-11T15:21:19.357Z,10.68
2023-05-11T15:23:52.462Z,10.90
2023-05-11T15:26:46.385Z,10.43
2023-05-11T15:29:33.371Z,10.77
2023-05-11T15:32:06.476Z,11.98
2023-05-11T15:34:59.660Z,10.85
2023-05-11T15:37:33.603Z,10.57
2023-05-11T15:40:20.372Z,11.15
2023-05-11T15:42:53.471Z,10.60
2023-05-11T15:45:40.367Z,10.68
2023-05-11T15:48:14.825Z,10.52
2023-05-11T15:51:01.378Z,11.70
2023-05-11T15:53:34.552Z,10.73
2023-05-11T15:56:21.379Z,11.18
2023-05-11T15:58:54.451Z,11.02
2023-05-11T16:01:41.714Z,9.77
2023-05-11T16:04:15.613Z,10.18
2023-05-11T16:07:02.393Z,10.93
2023-05-11T16:09:35.484Z,11.43
2023-05-11T16:12:22.389Z,11.18
2023-05-11T16:14:55.846Z,11.05
2023-05-11T16:17:43.400Z,12.35
2023-05-11T16:20:23.402Z,11.57
2023-05-11T16:23:10.377Z,11.65
2023-05-11T16:25:43.523Z,10.70
2023-05-11T16:28:38.414Z,11.00
2023-05-11T16:31:32.460Z,10.82
2023-05-11T16:34:27.409Z,10.93
2023-05-11T16:37:14.382Z,10.52
2023-05-11T16:39:47.557Z,11.02
2023-05-11T16:42:34.417Z,10.77
2023-05-11T16:45:07.568Z,10.45
2023-05-11T16:47:54.435Z,10.52
2023-05-11T16:50:27.607Z,10.73
2023-05-11T16:53:15.405Z,9.95
2023-05-11T16:55:55.397Z,9.75
2023-05-11T16:58:50.399Z,11.30
2023-05-11T17:01:37.399Z,11.15
2023-05-11T17:04:17.462Z,11.50
2023-05-11T17:07:04.411Z,10.43
2023-05-11T17:09:37.527Z,10.60
2023-05-11T17:12:24.449Z,11.68
2023-05-11T17:14:57.676Z,12.23
2023-05-11T17:17:44.503Z,13.00
2023-05-11T17:20:20.588Z,12.50
2023-05-11T17:23:07.433Z,13.50
2023-05-11T17:25:47.426Z,15.55
2023-05-11T17:28:41.402Z,13.95
2023-05-11T17:31:28.626Z,13.88
2023-05-11T17:34:03.267Z,13.63
2023-05-11T17:36:51.429Z,12.63
2023-05-11T17:39:24.645Z,12.55
2023-05-11T17:42:12.238Z,12.43
2023-05-11T17:44:52.434Z,12.23
2023-05-11T17:47:46.471Z,12.95
2023-05-11T17:50:33.463Z,13.32
2023-05-11T17:53:07.092Z,12.10
2023-05-11T17:55:53.465Z,12.98
2023-05-11T17:58:26.884Z,13.20
2023-05-11T18:01:15.516Z,12.93
2023-05-11T18:03:49.849Z,12.73
2023-05-11T18:06:36.466Z,16.35
2023-05-11T18:09:12.354Z,14.52
2023-05-11T18:11:59.442Z,14.07
2023-05-11T18:14:40.457Z,14.88
2023-05-11T18:17:35.527Z,14.75
2023-05-11T18:20:29.483Z,16.17
2023-05-11T18:23:16.463Z,14.90
2023-05-11T18:25:49.599Z,13.68
2023-05-11T18:28:43.478Z,14.18
2023-05-11T18:31:30.522Z,12.85
2023-05-11T18:34:04.606Z,13.45
2023-05-11T18:36:51.494Z,12.82
2023-05-11T18:39:24.681Z,14.35
2023-05-11T18:42:13.525Z,16.30
2023-05-11T18:44:46.715Z,15.15
2023-05-11T18:47:33.523Z,15.85
2023-05-11T18:50:07.626Z,14.60
2023-05-11T18:52:55.488Z,15.65
2023-05-11T18:55:30.950Z,15.50
2023-05-11T18:58:19.474Z,15.55
2023-05-11T19:00:56.673Z,15.10
2023-05-11T19:03:44.597Z,14.77
2023-05-11T19:06:17.707Z,14.18
2023-05-11T19:09:04.540Z,14.55
2023-05-11T19:11:38.058Z,15.25
2023-05-11T19:14:24.530Z,14.70
2023-05-11T19:16:57.747Z,16.27
2023-05-11T19:19:44.511Z,15.93
2023-05-11T19:22:26.484Z,16.73
2023-05-11T19:25:21.473Z,16.48
2023-05-11T19:28:15.490Z,15.95
2023-05-11T19:31:19.669Z,15.10
2023-05-11T19:34:06.526Z,15.93
2023-05-11T19:36:39.747Z,17.38
2023-05-11T19:39:26.507Z,17.63
2023-05-11T19:41:59.728Z,16.27
2023-05-11T19:44:52.266Z,14.70
2023-05-11T19:47:25.647Z,15.55
2023-05-11T19:50:15.654Z,15.52
2023-05-11T19:52:56.522Z,16.10
2023-05-11T19:55:44.454Z,17.23
2023-05-11T19:58:18.672Z,19.02
2023-05-11T20:01:06.576Z,20.80
2023-05-11T20:03:46.664Z,20.15
2023-05-11T20:06:40.585Z,18.45
2023-05-11T20:09:34.504Z,17.98
2023-05-11T20:12:28.527Z,16.13
2023-05-11T20:15:16.567Z,16.15
2023-05-11T20:17:56.616Z,16.73
2023-05-11T20:20:43.549Z,16.05
2023-05-11T20:23:19.656Z,15.98
2023-05-11T20:26:06.540Z,15.32
2023-05-11T20:28:39.740Z,15.80
2023-05-11T20:31:28.541Z,17.55
2023-05-11T20:36:55.633Z,19.42
2023-05-11T20:39:28.754Z,18.75
2023-05-11T20:42:16.562Z,18.25
2023-05-11T20:44:50.272Z,17.55
2023-05-11T20:47:36.572Z,16.92
2023-05-11T20:50:11.051Z,16.83
2023-05-11T20:52:57.547Z,17.02
2023-05-11T20:55:37.541Z,16.42
2023-05-11T20:58:24.542Z,16.10
2023-05-11T21:00:57.968Z,15.93
2023-05-11T21:03:44.600Z,15.73
2023-05-11T21:06:24.576Z,17.42
2023-05-11T21:09:18.564Z,16.75
2023-05-11T21:12:12.564Z,16.48
2023-05-11T21:14:59.532Z,15.15
2023-05-11T21:17:32.720Z,15.05
2023-05-11T21:20:19.754Z,16.27
2023-05-11T21:22:53.803Z,15.25
2023-05-11T21:25:40.562Z,16.35
2023-05-11T21:28:13.691Z,15.27
2023-05-11T21:31:01.597Z,17.10
2023-05-11T21:33:41.564Z,16.35
2023-05-11T21:36:28.570Z,17.27
2023-05-11T21:39:01.695Z,17.55
2023-05-11T21:41:48.561Z,15.32
2023-05-11T21:44:28.579Z,32.53
2023-05-11T21:47:15.538Z,23.08
2023-05-11T21:49:50.705Z,20.52
2023-05-11T21:52:38.543Z,17.60
2023-05-11T21:55:12.717Z,17.52
2023-05-11T21:57:59.550Z,17.80
2023-05-11T22:00:40.547Z,17.23
2023-05-11T22:03:27.640Z,19.60
2023-05-11T22:06:00.792Z,18.52
2023-05-11T22:08:47.539Z,18.02
2023-05-11T22:11:28.612Z,18.13
2023-05-11T22:14:22.556Z,17.73
2023-05-11T22:17:09.568Z,17.40
2023-05-11T22:19:42.645Z,16.77
2023-05-11T22:22:29.590Z,17.42
2023-05-11T22:25:09.571Z,14.98
2023-05-11T22:28:03.569Z,16.38
2023-05-11T22:30:50.565Z,15.65
2023-05-11T22:33:23.676Z,16.92
2023-05-11T22:36:03.556Z,15.55
2023-05-11T22:38:44.595Z,16.45
2023-05-11T22:41:17.676Z,16.75
2023-05-11T22:44:04.578Z,17.02
2023-05-11T22:46:37.732Z,16.92
2023-05-11T22:49:24.585Z,14.93
2023-05-11T22:52:06.572Z,16.55
2023-05-11T22:54:53.573Z,16.60
2023-05-11T22:57:27.798Z,16.92
2023-05-11T23:00:17.854Z,15.82
2023-05-11T23:02:50.732Z,16.33
2023-05-11T23:05:37.573Z,16.52
2023-05-11T23:08:10.777Z,15.77
2023-05-11T23:10:57.583Z,14.82
2023-05-11T23:13:37.572Z,15.05
2023-05-11T23:16:31.593Z,15.57
2023-05-11T23:19:25.628Z,16.67
2023-05-11T23:22:12.598Z,16.30
2023-05-11T23:24:45.774Z,16.92
2023-05-11T23:27:39.606Z,16.83
2023-05-11T23:30:26.601Z,17.27
2023-05-11T23:32:59.720Z,17.05
2023-05-11T23:35:46.602Z,16.45
2023-05-11T23:38:19.681Z,16.05
2023-05-11T23:41:06.579Z,15.80
2023-05-11T23:43:39.700Z,16.23
2023-05-11T23:46:26.576Z,16.30
2023-05-11T23:48:59.756Z,16.10
2023-05-11T23:51:46.599Z,16.20
2023-05-11T23:54:19.766Z,15.05
2023-05-11T23:57:06.600Z,15.50
2023-05-11T23:59:46.596Z,15.50
